Time;durP1;ratioP1;P1;durP2;ratioP2;P2;SDS_P1;SDS_P2;PMS_P1;PMS_P2;Temp;Humidity;BMP_temperature;BMP_pressure;BME280_temperature;BME280_humidity;BME280_pressure;Samples;Min_cycle;Max_cycle;Signal;HPM_P1;HPM_P2
2023/01/31 00:01:28;;;;;;;10.02;3.97;;;4.90;99.90;;;;;;5030731;28;20030;-55
2023/01/31 00:04:14;;;;;;;16.75;4.63;;;4.90;99.90;;;;;;5023969;28;20079;-53
2023/01/31 00:07:00;;;;;;;18.27;3.53;;;4.90;99.90;;;;;;5005672;28;20025;-58
2023/01/31 00:09:46;;;;;;;16.17;4.78;;;5.00;99.90;;;;;;5013196;28;20548;-56
2023/01/31 00:12:32;;;;;;;19.83;4.57;;;5.00;99.90;;;;;;5025065;28;20113;-56
2023/01/31 00:15:18;;;;;;;26.05;4.97;;;4.90;99.90;;;;;;5030774;28;20221;-56
2023/01/31 00:18:04;;;;;;;14.52;4.10;;;5.00;99.90;;;;;;5030744;28;20080;-58
2023/01/31 00:20:50;;;;;;;14.10;4.57;;;5.00;99.90;;;;;;5033678;28;20037;-54
2023/01/31 00:23:37;;;;;;;13.38;3.97;;;4.90;99.90;;;;;;5030083;28;20506;-52
2023/01/31 00:26:30;;;;;;;14.65;4.13;;;4.80;99.90;;;;;;5034719;28;20055;-59
2023/01/31 00:29:16;;;;;;;12.48;3.80;;;4.70;99.90;;;;;;5042455;28;20022;-56
2023/01/31 00:32:02;;;;;;;12.23;3.20;;;4.60;99.90;;;;;;5030309;28;20033;-55
2023/01/31 00:34:48;;;;;;;12.60;4.78;;;4.60;99.90;;;;;;5005696;28;20037;-53
2023/01/31 00:37:34;;;;;;;11.70;3.35;;;4.30;99.90;;;;;;5011726;28;20030;-53
2023/01/31 00:40:20;;;;;;;14.15;3.40;;;4.10;99.90;;;;;;5024646;28;20087;-57
2023/01/31 00:43:06;;;;;;;15.50;4.05;;;4.10;99.90;;;;;;5002983;28;20053;-57
2023/01/31 00:45:52;;;;;;;17.33;4.35;;;4.10;99.90;;;;;;5031331;28;20120;-60
2023/01/31 00:48:39;;;;;;;10.32;3.90;;;4.10;99.90;;;;;;5029121;28;20038;-59
2023/01/31 00:51:25;;;;;;;15.82;4.28;;;4.10;99.90;;;;;;5029019;28;20017;-67
2023/01/31 00:54:11;;;;;;;20.23;4.22;;;4.20;99.90;;;;;;5029998;28;20369;-58
2023/01/31 00:56:57;;;;;;;10.88;3.45;;;4.20;99.90;;;;;;5029640;28;20046;-55
2023/01/31 00:59:43;;;;;;;18.35;4.95;;;4.20;99.90;;;;;;5013836;28;20064;-59
2023/01/31 01:02:29;;;;;;;12.45;3.40;;;4.30;99.90;;;;;;5028655;28;20025;-55
2023/01/31 01:05:15;;;;;;;18.00;4.53;;;4.40;99.90;;;;;;5027004;28;20409;-57
2023/01/31 01:08:01;;;;;;;14.38;4.70;;;4.30;99.90;;;;;;5029053;28;20021;-59
2023/01/31 01:10:47;;;;;;;12.80;4.32;;;4.40;99.90;;;;;;5015732;28;20040;-56
2023/01/31 01:13:33;;;;;;;24.67;5.10;;;4.50;99.90;;;;;;5035391;28;20037;-57
2023/01/31 01:16:22;;;;;;;16.00;4.90;;;4.50;99.90;;;;;;5033538;28;20080;-57
2023/01/31 01:19:12;;;;;;;17.92;4.30;;;4.60;99.90;;;;;;5033688;28;20030;-58
2023/01/31 01:21:58;;;;;;;18.17;4.10;;;4.70;99.90;;;;;;5045195;28;20029;-58
2023/01/31 01:24:45;;;;;;;15.88;3.70;;;4.60;99.90;;;;;;5019438;28;20072;-54
2023/01/31 01:27:31;;;;;;;22.30;5.07;;;4.60;99.90;;;;;;5032579;28;20025;-59
2023/01/31 01:30:17;;;;;;;15.65;4.82;;;4.50;99.90;;;;;;5033937;28;20468;-51
2023/01/31 01:33:03;;;;;;;15.23;3.85;;;4.40;99.90;;;;;;5032984;28;20017;-56
2023/01/31 01:35:49;;;;;;;16.63;4.50;;;4.50;99.90;;;;;;5032735;28;20029;-54
2023/01/31 01:38:36;;;;;;;15.73;4.38;;;4.50;99.90;;;;;;5026173;28;20041;-55
2023/01/31 01:41:22;;;;;;;12.05;4.40;;;4.60;99.90;;;;;;5026403;28;20045;-55
2023/01/31 01:44:46;;;;;;;13.25;4.07;;;4.60;99.90;;;;;;5033461;28;20068;-56
2023/01/31 01:47:49;;;;;;;16.52;5.57;;;4.60;99.90;;;;;;5024591;28;20029;-54
2023/01/31 01:50:43;;;;;;;11.63;4.07;;;4.50;99.90;;;;;;5031196;28;20017;-55
2023/01/31 01:53:29;;;;;;;15.07;3.90;;;4.60;99.90;;;;;;5030832;28;20381;-58
2023/01/31 01:56:31;;;;;;;11.63;3.67;;;4.50;99.90;;;;;;5031741;28;20125;-55
2023/01/31 01:59:25;;;;;;;10.23;3.55;;;4.50;99.90;;;;;;5031706;28;20106;-54
2023/01/31 02:02:13;;;;;;;13.23;4.50;;;4.50;99.90;;;;;;5031898;28;20045;-55
2023/01/31 02:04:59;;;;;;;11.82;3.13;;;4.50;99.90;;;;;;5031311;28;20103;-61
2023/01/31 02:07:45;;;;;;;10.93;3.53;;;4.50;99.90;;;;;;5031669;28;20101;-57
2023/01/31 02:10:41;;;;;;;13.18;4.32;;;4.50;99.90;;;;;;5029922;28;20026;-51
2023/01/31 02:13:28;;;;;;;11.48;3.75;;;4.50;99.90;;;;;;5029780;28;20048;-53
2023/01/31 02:16:14;;;;;;;14.93;3.42;;;4.50;99.90;;;;;;5030446;28;20034;-49
2023/01/31 02:19:01;;;;;;;14.65;4.32;;;4.50;99.90;;;;;;5030499;28;20025;-48
2023/01/31 02:21:59;;;;;;;11.75;3.53;;;4.50;99.90;;;;;;5031041;28;20113;-50
2023/01/31 02:25:26;;;;;;;10.70;3.30;;;4.40;99.90;;;;;;5029349;28;20025;-47
2023/01/31 02:28:25;;;;;;;12.70;4.13;;;4.40;99.90;;;;;;5024669;28;20390;-48
2023/01/31 02:31:35;;;;;;;13.25;4.30;;;4.50;99.90;;;;;;5016851;28;20494;-55
2023/01/31 02:34:56;;;;;;;9.75;4.50;;;4.50;99.90;;;;;;5030717;28;20022;-51
2023/01/31 02:38:00;;;;;;;10.95;3.60;;;4.50;99.90;;;;;;5013984;28;20025;-50
2023/01/31 02:40:58;;;;;;;16.10;3.67;;;4.40;99.90;;;;;;5030561;28;20018;-51
2023/01/31 02:47:03;;;;;;;13.13;3.55;;;4.20;99.90;;;;;;5029842;28;20063;-50
2023/01/31 02:50:11;;;;;;;13.38;3.90;;;4.10;99.90;;;;;;5029751;28;20512;-50
2023/01/31 02:53:02;;;;;;;18.83;4.25;;;4.10;99.90;;;;;;5023327;28;20032;-55
2023/01/31 02:56:23;;;;;;;16.48;4.45;;;4.00;99.90;;;;;;5022898;28;20025;-54
2023/01/31 02:59:25;;;;;;;17.27;3.83;;;3.90;99.90;;;;;;5003088;28;20490;-56
2023/01/31 03:02:12;;;;;;;20.83;6.45;;;3.90;99.90;;;;;;5029722;28;20040;-55
2023/01/31 03:04:58;;;;;;;9.18;3.53;;;4.00;99.90;;;;;;5028725;28;20063;-58
2023/01/31 03:07:50;;;;;;;13.65;3.85;;;3.90;99.90;;;;;;5028484;28;20034;-58
2023/01/31 03:11:01;;;;;;;21.05;4.50;;;4.00;99.90;;;;;;5029561;28;20036;-56
2023/01/31 03:14:06;;;;;;;15.48;4.18;;;4.00;99.90;;;;;;5029298;28;20505;-55
2023/01/31 03:17:30;;;;;;;21.75;4.13;;;4.10;99.90;;;;;;5027970;28;20029;-55
2023/01/31 03:20:19;;;;;;;16.27;4.53;;;4.20;99.90;;;;;;5029820;28;20038;-56
2023/01/31 03:23:28;;;;;;;14.07;4.68;;;4.10;99.90;;;;;;5029196;28;20045;-57
2023/01/31 03:26:16;;;;;;;15.35;4.57;;;4.10;99.90;;;;;;5028953;28;20033;-55
2023/01/31 03:29:05;;;;;;;17.20;4.57;;;4.10;99.90;;;;;;5029150;28;20030;-56
2023/01/31 03:32:03;;;;;;;20.55;5.53;;;4.20;99.90;;;;;;5028166;28;20037;-56
2023/01/31 03:34:50;;;;;;;22.73;5.40;;;4.20;99.90;;;;;;5015395;28;20053;-55
2023/01/31 03:37:43;;;;;;;17.60;4.72;;;4.10;99.90;;;;;;5030461;28;20041;-57
2023/01/31 03:40:39;;;;;;;20.27;5.03;;;4.10;99.90;;;;;;5029020;28;20045;-54
2023/01/31 03:43:36;;;;;;;18.90;4.75;;;4.10;99.90;;;;;;5028112;28;20018;-58
2023/01/31 03:46:26;;;;;;;14.52;4.95;;;4.10;99.90;;;;;;5027402;28;20088;-55
2023/01/31 03:49:14;;;;;;;13.65;4.47;;;4.30;99.90;;;;;;5029372;28;20022;-53
2023/01/31 03:52:06;;;;;;;15.07;3.78;;;4.40;99.90;;;;;;5030775;28;20027;-54
2023/01/31 03:55:00;;;;;;;17.40;4.50;;;4.20;99.90;;;;;;5029860;28;20084;-53
2023/01/31 03:57:51;;;;;;;12.75;4.28;;;4.20;99.90;;;;;;5014011;28;20033;-49
2023/01/31 04:00:41;;;;;;;13.93;4.32;;;4.10;99.90;;;;;;5029606;28;20025;-52
2023/01/31 04:03:38;;;;;;;17.02;4.82;;;4.10;99.90;;;;;;5027520;28;20489;-51
2023/01/31 04:06:24;;;;;;;13.05;3.90;;;4.00;99.90;;;;;;5026155;28;20087;-56
2023/01/31 04:09:10;;;;;;;18.02;3.75;;;4.00;99.90;;;;;;5028496;28;20679;-55
2023/01/31 04:11:59;;;;;;;17.52;4.95;;;3.90;99.90;;;;;;5027738;28;20034;-53
2023/01/31 04:14:45;;;;;;;18.60;4.20;;;3.80;99.90;;;;;;5028367;28;20017;-53
2023/01/31 04:17:32;;;;;;;20.20;3.70;;;3.80;99.90;;;;;;5028022;28;20043;-51
2023/01/31 04:20:18;;;;;;;16.83;4.10;;;3.70;99.90;;;;;;5029095;28;20026;-54
2023/01/31 04:23:04;;;;;;;13.38;4.55;;;3.70;99.90;;;;;;5027323;28;20489;-54
2023/01/31 04:25:53;;;;;;;13.23;3.15;;;3.70;99.90;;;;;;5029942;28;20025;-51
2023/01/31 04:28:39;;;;;;;17.33;4.40;;;3.70;99.90;;;;;;5028798;28;20021;-54
2023/01/31 04:31:25;;;;;;;10.82;3.88;;;3.70;99.90;;;;;;5028116;28;20025;-53
2023/01/31 04:34:11;;;;;;;11.70;3.97;;;3.60;99.90;;;;;;5027646;28;20032;-50
2023/01/31 04:36:57;;;;;;;12.82;3.40;;;3.60;99.90;;;;;;5018769;28;20079;-54
2023/01/31 04:39:43;;;;;;;14.43;3.70;;;3.60;99.90;;;;;;5025902;28;20025;-54
2023/01/31 04:42:29;;;;;;;12.73;3.22;;;3.60;99.90;;;;;;5034232;28;20030;-54
2023/01/31 04:45:15;;;;;;;11.10;3.47;;;3.70;99.90;;;;;;5033293;28;20115;-58
2023/01/31 04:48:01;;;;;;;16.73;4.85;;;3.70;99.90;;;;;;5037105;28;20025;-59
2023/01/31 04:50:47;;;;;;;11.00;3.53;;;3.70;99.90;;;;;;5032360;28;20075;-54
2023/01/31 04:53:32;;;;;;;20.60;4.30;;;3.70;99.90;;;;;;5031274;28;20025;-53
2023/01/31 04:56:18;;;;;;;18.10;4.50;;;3.60;99.90;;;;;;5031571;28;20476;-56
2023/01/31 04:59:04;;;;;;;15.30;4.70;;;3.50;99.90;;;;;;5032829;28;20501;-54
2023/01/31 05:01:50;;;;;;;15.88;4.55;;;3.70;99.90;;;;;;5032784;28;20056;-56
2023/01/31 05:04:36;;;;;;;13.07;5.50;;;3.60;99.90;;;;;;5031673;28;20041;-53
2023/01/31 05:07:22;;;;;;;17.52;4.55;;;3.60;99.90;;;;;;5021842;28;20019;-56
2023/01/31 05:10:09;;;;;;;19.88;4.57;;;3.60;99.90;;;;;;5033276;28;20033;-55
2023/01/31 05:12:55;;;;;;;13.25;4.78;;;3.60;99.90;;;;;;5032240;28;20029;-54
2023/01/31 05:15:41;;;;;;;17.63;3.80;;;3.60;99.90;;;;;;5031438;28;20474;-57
2023/01/31 05:18:27;;;;;;;13.43;4.90;;;3.70;99.90;;;;;;5016820;28;20393;-55
2023/01/31 05:21:13;;;;;;;17.10;4.72;;;3.80;99.90;;;;;;5031260;28;20715;-56
2023/01/31 05:23:59;;;;;;;13.45;4.30;;;3.70;99.90;;;;;;5031424;28;20099;-56
2023/01/31 05:26:46;;;;;;;15.82;4.35;;;3.70;99.90;;;;;;5031530;28;20493;-53
2023/01/31 05:29:32;;;;;;;13.82;4.00;;;3.70;99.90;;;;;;5031586;28;20083;-53
2023/01/31 05:32:18;;;;;;;16.23;3.75;;;3.70;99.90;;;;;;5031086;28;20160;-54
2023/01/31 05:35:05;;;;;;;14.00;4.15;;;3.70;99.90;;;;;;5017880;28;20022;-58
2023/01/31 05:37:53;;;;;;;11.70;3.92;;;3.70;99.90;;;;;;5030947;28;20038;-57
2023/01/31 05:40:39;;;;;;;9.25;3.40;;;3.80;99.90;;;;;;5030451;28;20444;-56
2023/01/31 05:43:24;;;;;;;21.98;4.65;;;3.80;99.90;;;;;;5030504;28;20440;-57
2023/01/31 05:46:10;;;;;;;19.10;4.05;;;3.80;99.90;;;;;;5032965;28;20033;-49
2023/01/31 05:48:56;;;;;;;12.63;3.65;;;3.80;99.90;;;;;;5032323;28;20051;-48
2023/01/31 05:51:42;;;;;;;15.43;3.88;;;3.80;99.90;;;;;;5031390;28;20529;-51
2023/01/31 05:54:28;;;;;;;16.92;3.45;;;3.80;99.90;;;;;;5032603;28;20493;-53
2023/01/31 05:57:14;;;;;;;12.90;3.95;;;3.80;99.90;;;;;;5032680;28;20022;-54
2023/01/31 06:00:01;;;;;;;14.75;3.45;;;3.70;99.90;;;;;;5032210;28;20033;-51
2023/01/31 06:02:47;;;;;;;17.02;4.30;;;3.70;99.90;;;;;;5031777;28;20040;-55
2023/01/31 06:05:33;;;;;;;16.70;4.18;;;3.70;99.90;;;;;;5031318;28;20032;-52
2023/01/31 06:08:18;;;;;;;14.02;3.65;;;3.70;99.90;;;;;;5016904;28;20017;-56
2023/01/31 06:11:04;;;;;;;18.33;4.25;;;3.70;99.90;;;;;;5028551;28;20638;-58
2023/01/31 06:13:50;;;;;;;14.90;3.92;;;3.70;99.90;;;;;;5032740;28;20029;-51
2023/01/31 06:16:36;;;;;;;19.75;4.45;;;3.80;99.90;;;;;;5030360;28;20409;-55
2023/01/31 06:19:24;;;;;;;14.98;3.70;;;3.80;99.90;;;;;;5031812;28;20514;-55
2023/01/31 06:22:10;;;;;;;12.35;3.55;;;3.90;99.90;;;;;;5031504;28;20037;-53
2023/01/31 06:24:56;;;;;;;14.20;3.60;;;3.80;99.90;;;;;;5032330;28;20026;-58
2023/01/31 06:27:42;;;;;;;22.65;5.85;;;3.80;99.90;;;;;;5032580;28;20037;-56
2023/01/31 06:30:28;;;;;;;16.60;4.65;;;3.80;99.90;;;;;;5030520;28;20075;-57
2023/01/31 06:33:14;;;;;;;18.70;4.65;;;3.80;99.90;;;;;;5016123;28;20101;-49
2023/01/31 06:36:01;;;;;;;14.43;4.15;;;3.90;99.90;;;;;;5026274;28;20022;-53
2023/01/31 06:38:51;;;;;;;17.27;5.18;;;3.80;99.90;;;;;;5029025;28;20031;-59
2023/01/31 06:41:37;;;;;;;21.00;4.47;;;3.80;99.90;;;;;;5029451;28;20512;-54
2023/01/31 06:44:23;;;;;;;14.70;4.10;;;3.90;99.90;;;;;;5031005;28;20104;-52
2023/01/31 06:47:09;;;;;;;13.55;3.88;;;3.90;99.90;;;;;;5029746;28;20029;-54
2023/01/31 06:49:54;;;;;;;15.10;4.05;;;3.90;99.90;;;;;;5017118;28;20032;-53
2023/01/31 06:52:41;;;;;;;10.63;3.95;;;3.90;99.90;;;;;;5029282;28;20032;-52
2023/01/31 06:55:27;;;;;;;17.60;4.90;;;4.00;99.90;;;;;;5030028;28;20095;-54
2023/01/31 06:58:13;;;;;;;15.00;5.30;;;4.00;99.90;;;;;;5027440;28;20038;-54
2023/01/31 07:01:10;;;;;;;28.42;5.20;;;4.00;99.90;;;;;;5023062;28;20030;-55
2023/01/31 07:03:56;;;;;;;16.33;5.15;;;4.00;99.90;;;;;;5028102;28;20031;-51
2023/01/31 07:06:42;;;;;;;16.92;4.18;;;4.10;99.90;;;;;;5028027;28;20044;-56
2023/01/31 07:09:28;;;;;;;16.92;4.22;;;4.00;99.90;;;;;;5025428;28;20063;-52
2023/01/31 07:12:14;;;;;;;14.57;3.67;;;4.00;99.90;;;;;;5027914;28;20452;-51
2023/01/31 07:15:00;;;;;;;13.20;4.20;;;4.00;99.90;;;;;;5029696;28;20594;-55
2023/01/31 07:17:46;;;;;;;16.88;4.85;;;4.10;99.90;;;;;;5015327;28;20104;-53
2023/01/31 07:20:32;;;;;;;14.45;4.10;;;4.00;99.90;;;;;;5030899;28;20033;-48
2023/01/31 07:23:18;;;;;;;18.77;4.43;;;4.00;99.90;;;;;;5017938;28;20068;-49
2023/01/31 07:26:04;;;;;;;11.23;3.72;;;4.00;99.90;;;;;;5030017;28;20033;-49
2023/01/31 07:28:51;;;;;;;14.13;4.22;;;4.10;99.90;;;;;;5030084;28;20033;-50
2023/01/31 07:31:38;;;;;;;14.85;4.07;;;4.10;99.90;;;;;;5028295;28;20121;-49
2023/01/31 07:34:24;;;;;;;12.35;3.63;;;4.10;99.90;;;;;;5027880;28;20030;-52
2023/01/31 07:37:10;;;;;;;21.50;4.40;;;4.10;99.90;;;;;;5029936;28;20033;-48
2023/01/31 07:39:55;;;;;;;15.95;4.20;;;4.10;99.90;;;;;;5026598;28;20635;-52
2023/01/31 07:42:41;;;;;;;15.07;4.05;;;4.20;99.90;;;;;;5017252;28;20041;-55
2023/01/31 07:45:27;;;;;;;16.30;4.45;;;4.20;99.90;;;;;;5029913;28;20091;-53
2023/01/31 07:48:13;;;;;;;13.43;4.10;;;4.20;99.90;;;;;;5012772;28;20025;-51
2023/01/31 07:51:01;;;;;;;17.55;3.85;;;4.20;99.90;;;;;;5028108;28;20028;-52
2023/01/31 07:53:46;;;;;;;13.82;4.47;;;4.20;99.90;;;;;;5028193;28;20107;-48
2023/01/31 07:56:32;;;;;;;21.00;5.05;;;4.20;99.90;;;;;;5029330;28;20032;-50
2023/01/31 07:59:19;;;;;;;17.27;4.63;;;4.20;99.90;;;;;;5029625;28;20030;-48
2023/01/31 08:05:13;;;;;;;13.07;4.68;;;4.30;99.90;;;;;;5028465;28;20060;-48
2023/01/31 08:08:09;;;;;;;15.40;4.57;;;4.30;99.90;;;;;;5024729;28;20030;-47
2023/01/31 08:10:55;;;;;;;16.52;4.53;;;4.40;99.90;;;;;;5028779;28;20025;-48
2023/01/31 08:13:41;;;;;;;16.75;5.93;;;4.50;99.90;;;;;;5017748;28;20028;-48
2023/01/31 08:16:27;;;;;;;12.27;3.65;;;4.40;99.90;;;;;;5025765;28;20029;-48
2023/01/31 08:19:13;;;;;;;11.05;4.30;;;4.40;99.90;;;;;;5029793;28;20114;-45
2023/01/31 08:22:00;;;;;;;13.30;3.90;;;4.40;99.90;;;;;;5028249;28;20036;-46
2023/01/31 08:24:46;;;;;;;11.43;3.80;;;4.50;99.90;;;;;;5027417;28;20030;-55
2023/01/31 08:27:32;;;;;;;14.32;5.15;;;4.40;99.90;;;;;;5027631;28;20021;-50
2023/01/31 08:30:18;;;;;;;15.82;4.35;;;4.40;99.90;;;;;;5028868;28;20077;-54
2023/01/31 08:33:04;;;;;;;16.10;4.03;;;4.30;99.90;;;;;;5027111;28;20104;-53
2023/01/31 08:35:50;;;;;;;11.25;3.70;;;4.30;99.90;;;;;;5027950;28;20033;-60
2023/01/31 08:38:37;;;;;;;13.55;4.07;;;4.40;99.90;;;;;;5029702;28;20144;-56
2023/01/31 08:41:25;;;;;;;14.50;4.25;;;4.50;99.90;;;;;;5028830;28;20067;-49
2023/01/31 08:44:11;;;;;;;17.90;4.95;;;4.50;99.90;;;;;;5029958;28;20034;-54
2023/01/31 08:47:00;;;;;;;13.93;4.20;;;4.60;99.90;;;;;;5030194;28;20026;-47
2023/01/31 08:49:46;;;;;;;14.18;4.22;;;4.70;99.90;;;;;;5028766;28;20032;-46
2023/01/31 08:52:34;;;;;;;23.88;4.55;;;4.70;99.90;;;;;;5015999;28;20018;-46
2023/01/31 08:55:20;;;;;;;19.33;5.65;;;4.80;99.90;;;;;;5028680;28;20525;-50
2023/01/31 08:58:06;;;;;;;11.90;5.22;;;4.70;99.90;;;;;;5026936;28;20064;-51
2023/01/31 09:00:52;;;;;;;10.18;3.95;;;4.70;99.90;;;;;;5029889;28;20033;-50
2023/01/31 09:03:39;;;;;;;13.82;3.90;;;4.70;99.90;;;;;;5028024;28;20465;-45
2023/01/31 09:06:26;;;;;;;14.55;4.55;;;4.80;99.90;;;;;;5028331;28;20029;-45
2023/01/31 09:09:12;;;;;;;17.85;3.83;;;4.70;99.90;;;;;;5015161;28;20102;-49
2023/01/31 09:11:58;;;;;;;13.07;4.25;;;4.70;99.90;;;;;;5029744;28;20105;-53
2023/01/31 09:14:44;;;;;;;12.38;3.95;;;4.80;99.90;;;;;;5028586;28;20049;-52
2023/01/31 09:17:29;;;;;;;16.42;4.22;;;4.80;99.90;;;;;;5032707;28;20097;-53
2023/01/31 09:20:15;;;;;;;14.35;3.45;;;4.80;99.90;;;;;;5017166;28;20441;-53
2023/01/31 09:23:01;;;;;;;8.02;3.38;;;4.80;99.90;;;;;;5016846;28;20170;-54
2023/01/31 09:25:54;;;;;;;15.98;4.18;;;4.90;99.90;;;;;;5027934;28;20056;-52
2023/01/31 09:28:42;;;;;;;11.32;3.90;;;4.90;99.90;;;;;;5030352;28;20031;-52
2023/01/31 09:31:28;;;;;;;20.05;5.13;;;4.90;99.90;;;;;;5029652;28;20029;-49
2023/01/31 09:34:15;;;;;;;11.90;4.53;;;4.90;99.90;;;;;;5018624;28;20029;-52
2023/01/31 09:37:01;;;;;;;14.73;4.13;;;5.00;99.90;;;;;;5031899;28;20026;-49
2023/01/31 09:39:47;;;;;;;10.85;3.70;;;5.10;99.90;;;;;;5032480;28;20033;-48
2023/01/31 09:42:41;;;;;;;10.82;4.07;;;5.00;99.90;;;;;;5032879;28;20113;-50
2023/01/31 09:45:31;;;;;;;12.43;3.95;;;5.20;99.90;;;;;;5034356;28;20029;-48
2023/01/31 09:48:22;;;;;;;14.32;4.60;;;5.20;99.90;;;;;;5032070;28;20060;-49
2023/01/31 09:51:11;;;;;;;17.77;5.75;;;5.20;99.90;;;;;;5035602;28;20680;-52
2023/01/31 09:53:59;;;;;;;16.45;4.72;;;5.30;99.90;;;;;;5030835;28;20061;-55
2023/01/31 09:56:57;;;;;;;9.50;5.05;;;5.20;99.90;;;;;;5030927;28;20033;-52
2023/01/31 09:59:52;;;;;;;12.90;4.45;;;5.30;99.90;;;;;;5028824;28;20131;-53
2023/01/31 10:03:03;;;;;;;18.90;4.95;;;5.30;99.90;;;;;;5015438;28;20028;-56
2023/01/31 10:06:11;;;;;;;9.85;4.22;;;5.30;99.90;;;;;;5030950;28;20514;-52
2023/01/31 10:09:20;;;;;;;15.23;5.65;;;5.30;99.90;;;;;;5015767;28;20398;-53
2023/01/31 10:12:17;;;;;;;15.70;4.40;;;5.40;99.90;;;;;;5028356;28;20086;-53
2023/01/31 10:15:29;;;;;;;13.18;4.32;;;5.40;99.90;;;;;;5029579;28;20544;-55
2023/01/31 10:18:17;;;;;;;14.82;5.18;;;5.50;99.90;;;;;;5027253;28;20025;-55
2023/01/31 10:21:26;;;;;;;15.85;5.18;;;5.40;99.90;;;;;;5035226;28;20033;-50
2023/01/31 10:24:30;;;;;;;15.60;5.07;;;5.40;99.90;;;;;;5028901;28;20029;-52
2023/01/31 10:27:39;;;;;;;17.48;6.40;;;5.40;99.90;;;;;;5031974;28;20026;-57
2023/01/31 10:30:44;;;;;;;12.73;4.72;;;5.40;99.90;;;;;;5020145;28;20060;-51
2023/01/31 10:33:57;;;;;;;13.82;5.05;;;5.40;99.90;;;;;;5029991;28;20025;-55
2023/01/31 10:37:07;;;;;;;17.40;5.35;;;5.50;99.90;;;;;;5030902;28;20061;-52
2023/01/31 10:39:57;;;;;;;18.02;4.90;;;5.40;99.90;;;;;;5029349;28;20025;-50
2023/01/31 10:42:59;;;;;;;15.95;5.80;;;5.40;99.90;;;;;;5022109;28;20421;-56
2023/01/31 10:45:45;;;;;;;20.55;6.20;;;5.40;99.90;;;;;;5032309;28;20041;-53
2023/01/31 10:48:31;;;;;;;16.60;6.05;;;5.40;99.90;;;;;;5031667;28;20021;-51
2023/01/31 10:51:25;;;;;;;20.55;6.75;;;5.40;99.90;;;;;;5007278;28;20026;-54
2023/01/31 10:54:16;;;;;;;16.77;5.93;;;5.40;99.90;;;;;;5031662;28;20453;-55
2023/01/31 10:57:02;;;;;;;17.38;5.97;;;5.40;99.90;;;;;;5030644;28;20471;-55
2023/01/31 10:59:50;;;;;;;14.95;6.13;;;5.30;99.90;;;;;;5030084;28;20025;-53
2023/01/31 11:02:37;;;;;;;13.68;5.80;;;5.30;99.90;;;;;;5030533;28;20087;-56
2023/01/31 11:05:25;;;;;;;16.98;6.50;;;5.40;99.90;;;;;;5029657;28;20025;-56
2023/01/31 11:08:31;;;;;;;17.98;5.72;;;5.40;99.90;;;;;;5031738;28;20072;-55
2023/01/31 11:11:20;;;;;;;10.60;5.60;;;5.30;99.90;;;;;;5032332;28;20036;-49
2023/01/31 11:14:17;;;;;;;16.88;6.10;;;5.30;99.90;;;;;;5031188;28;20022;-51
2023/01/31 11:17:14;;;;;;;21.83;7.25;;;5.40;99.90;;;;;;5031063;28;20029;-51
2023/01/31 11:20:03;;;;;;;16.42;5.95;;;5.40;99.90;;;;;;5031413;28;20029;-49
2023/01/31 11:22:49;;;;;;;17.38;5.88;;;5.40;99.90;;;;;;5031383;28;20060;-53
2023/01/31 11:25:36;;;;;;;18.33;6.32;;;5.40;99.90;;;;;;5031335;28;20033;-48
2023/01/31 11:28:35;;;;;;;18.27;6.32;;;5.40;99.90;;;;;;5030908;28;20022;-48
2023/01/31 11:31:30;;;;;;;11.15;5.75;;;5.40;99.90;;;;;;5031790;28;20121;-53
2023/01/31 11:34:29;;;;;;;17.63;6.20;;;5.40;99.90;;;;;;5026908;28;20660;-48
2023/01/31 11:37:17;;;;;;;18.02;6.28;;;5.50;99.90;;;;;;5004472;28;20538;-52
2023/01/31 11:40:24;;;;;;;15.40;5.90;;;5.50;99.90;;;;;;5030642;28;20030;-52
2023/01/31 11:43:13;;;;;;;17.75;5.82;;;5.50;99.90;;;;;;5031152;28;20075;-48
2023/01/31 11:46:01;;;;;;;18.48;6.13;;;5.60;99.90;;;;;;5030544;28;20029;-51
2023/01/31 11:48:47;;;;;;;16.52;7.38;;;5.60;99.90;;;;;;5031976;28;20625;-47
2023/01/31 11:51:34;;;;;;;16.77;6.82;;;5.60;99.90;;;;;;5030584;28;20084;-48
2023/01/31 11:54:24;;;;;;;17.70;6.45;;;5.60;99.90;;;;;;5030385;28;20034;-53
2023/01/31 11:57:27;;;;;;;14.00;6.50;;;5.60;99.90;;;;;;5011529;28;20034;-54
2023/01/31 12:00:23;;;;;;;20.50;7.45;;;5.60;99.90;;;;;;5025450;28;20017;-50
2023/01/31 12:03:16;;;;;;;18.63;7.60;;;5.50;99.90;;;;;;5026899;28;20658;-48
2023/01/31 12:06:08;;;;;;;20.17;7.43;;;5.60;99.90;;;;;;5032060;28;20116;-59
2023/01/31 12:08:55;;;;;;;15.82;7.15;;;5.60;99.90;;;;;;5044933;28;20028;-53
2023/01/31 12:11:50;;;;;;;15.77;7.22;;;5.50;99.90;;;;;;5051190;28;20033;-54
2023/01/31 12:14:39;;;;;;;19.40;7.80;;;5.60;99.90;;;;;;5049911;28;20584;-58
2023/01/31 12:17:29;;;;;;;19.58;7.68;;;5.60;99.90;;;;;;5049191;28;20561;-49
2023/01/31 12:20:21;;;;;;;15.95;7.38;;;5.60;99.90;;;;;;5050942;28;20037;-53
2023/01/31 12:23:17;;;;;;;21.83;7.40;;;5.60;99.90;;;;;;5045406;28;20021;-48
2023/01/31 12:26:03;;;;;;;;;;;5.60;99.90;;;;;;5050489;28;20033;-56
2023/01/31 12:28:58;;;;;;;20.58;7.57;;;5.50;99.90;;;;;;5049432;28;19913;-58
2023/01/31 12:32:09;;;;;;;16.40;6.93;;;5.80;99.90;;;;;;5047676;28;20033;-53
2023/01/31 12:34:58;;;;;;;16.38;6.97;;;5.90;99.90;;;;;;5043858;28;20029;-56
2023/01/31 12:38:21;;;;;;;16.20;6.97;;;5.70;99.90;;;;;;5047956;28;20043;-50
2023/01/31 12:41:32;;;;;;;21.10;9.07;;;5.50;99.90;;;;;;5049489;28;20025;-49
2023/01/31 12:44:30;;;;;;;14.48;6.75;;;5.60;99.90;;;;;;5049885;28;20021;-50
2023/01/31 12:47:28;;;;;;;20.60;7.13;;;5.60;99.90;;;;;;5049626;28;20512;-53
2023/01/31 12:51:05;;;;;;;21.05;8.10;;;5.60;99.90;;;;;;5045385;28;20442;-55
2023/01/31 12:54:04;;;;;;;23.95;7.30;;;5.70;99.90;;;;;;5050302;28;20024;-46
2023/01/31 12:57:00;;;;;;;20.60;7.90;;;5.60;99.90;;;;;;5049743;28;20025;-57
2023/01/31 12:59:50;;;;;;;16.13;7.15;;;5.50;99.90;;;;;;5049910;28;20048;-51
2023/01/31 13:02:54;;;;;;;19.90;8.00;;;5.50;99.90;;;;;;5049757;28;20102;-55
2023/01/31 13:05:48;;;;;;;18.02;7.50;;;5.50;99.90;;;;;;5034718;28;20025;-54
2023/01/31 13:08:37;;;;;;;23.80;8.57;;;5.50;99.90;;;;;;5054569;28;20104;-53
2023/01/31 13:11:31;;;;;;;22.30;7.47;;;5.50;99.90;;;;;;5054709;28;20044;-52
2023/01/31 13:14:28;;;;;;;16.52;8.25;;;5.50;99.90;;;;;;5053339;28;20025;-57
2023/01/31 13:17:21;;;;;;;13.90;8.30;;;5.40;99.90;;;;;;5034484;28;20036;-58
2023/01/31 13:20:26;;;;;;;16.77;7.82;;;5.50;99.90;;;;;;5054478;28;20453;-54
2023/01/31 13:23:30;;;;;;;23.95;7.97;;;5.50;99.90;;;;;;5053920;28;20032;-57
2023/01/31 13:26:32;;;;;;;20.92;7.55;;;5.40;99.90;;;;;;5051066;28;20036;-56
2023/01/31 13:29:24;;;;;;;17.13;7.47;;;5.40;99.90;;;;;;5054807;28;20053;-57
2023/01/31 13:32:19;;;;;;;22.48;8.27;;;5.40;99.90;;;;;;5035285;28;20021;-57
2023/01/31 13:35:34;;;;;;;23.65;7.85;;;5.40;99.90;;;;;;5053394;28;20021;-55
2023/01/31 13:38:22;;;;;;;17.40;7.15;;;5.50;99.90;;;;;;5054437;28;20033;-57
2023/01/31 13:41:17;;;;;;;13.90;7.13;;;5.50;99.90;;;;;;5048431;28;20032;-55
2023/01/31 13:44:03;;;;;;;12.93;6.30;;;5.50;99.90;;;;;;5054054;28;20174;-53
2023/01/31 13:47:20;;;;;;;16.73;7.00;;;5.50;99.90;;;;;;5053464;28;20068;-55
2023/01/31 13:50:30;;;;;;;19.80;7.45;;;5.60;99.90;;;;;;5054110;28;20397;-55
2023/01/31 13:53:22;;;;;;;19.60;8.45;;;5.50;99.90;;;;;;5053430;28;20017;-54
2023/01/31 13:56:12;;;;;;;25.20;7.80;;;5.60;99.90;;;;;;5045349;28;20108;-57
2023/01/31 13:59:00;;;;;;;15.73;6.65;;;5.60;99.90;;;;;;5053315;28;20040;-56
2023/01/31 14:01:48;;;;;;;13.45;6.68;;;5.60;99.90;;;;;;5052385;28;20044;-55
2023/01/31 14:04:36;;;;;;;16.50;7.05;;;5.50;99.90;;;;;;5052578;28;20112;-58
2023/01/31 14:07:22;;;;;;;12.32;6.60;;;5.50;99.90;;;;;;5054105;28;20032;-55
2023/01/31 14:10:08;;;;;;;15.15;7.25;;;5.50;99.90;;;;;;5043229;28;20053;-56
2023/01/31 14:13:26;;;;;;;16.92;6.47;;;5.50;99.90;;;;;;5055526;28;20025;-54
2023/01/31 14:16:36;;;;;;;16.98;7.10;;;5.40;99.90;;;;;;5051699;28;20111;-58
2023/01/31 14:19:21;;;;;;;16.85;6.43;;;5.50;99.90;;;;;;5052841;28;20025;-58
2023/01/31 14:22:16;;;;;;;18.98;6.57;;;5.50;99.90;;;;;;5053170;28;20025;-56
2023/01/31 14:25:13;;;;;;;19.57;7.10;;;5.40;99.90;;;;;;5053271;28;20033;-57
2023/01/31 14:28:02;;;;;;;17.35;7.30;;;5.40;99.90;;;;;;5052072;28;20032;-56
2023/01/31 14:30:48;;;;;;;10.85;5.40;;;5.40;99.90;;;;;;5052109;28;20401;-56
2023/01/31 14:33:35;;;;;;;13.80;6.07;;;5.30;99.90;;;;;;5038376;28;20029;-57
2023/01/31 14:36:54;;;;;;;14.73;6.07;;;5.40;99.90;;;;;;5052048;28;20444;-54
2023/01/31 14:40:22;;;;;;;17.92;7.18;;;5.30;99.90;;;;;;5051726;28;20029;-56
2023/01/31 14:43:34;;;;;;;13.25;6.80;;;5.20;99.90;;;;;;5046299;28;20039;-53
2023/01/31 14:46:54;;;;;;;23.17;7.30;;;5.20;99.90;;;;;;5049701;28;20032;-55
2023/01/31 14:50:01;;;;;;;17.58;7.55;;;5.20;99.90;;;;;;5052649;28;20025;-55
2023/01/31 14:53:01;;;;;;;13.68;6.25;;;5.30;99.90;;;;;;5052075;28;20108;-55
2023/01/31 14:56:12;;;;;;;13.48;6.28;;;5.20;99.90;;;;;;5050499;28;20025;-55
2023/01/31 14:58:58;;;;;;;13.80;6.57;;;5.20;99.90;;;;;;5052146;28;20163;-55
2023/01/31 15:01:44;;;;;;;18.92;7.20;;;5.30;99.90;;;;;;5053125;28;20060;-53